sensor_id;sensor_type;location;lat;lon;timestamp;pressure;altitude;pressure_sealevel;temperature;humidity
63819;BME280;49970;54.976;73.248;2023-05-25T00:00:27;101128.19;;;15.83;62.96
63819;BME280;49970;54.976;73.248;2023-05-25T00:02:54;101122.38;;;15.78;62.93
63819;BME280;49970;54.976;73.248;2023-05-25T00:05:20;101110.59;;;15.69;63.47
63819;BME280;49970;54.976;73.248;2023-05-25T00:07:53;101115.69;;;15.72;63.56
63819;BME280;49970;54.976;73.248;2023-05-25T00:10:20;101118.47;;;15.71;64.22
63819;BME280;49970;54.976;73.248;2023-05-25T00:12:47;101116.31;;;15.64;64.62
63819;BME280;49970;54.976;73.248;2023-05-25T00:15:13;101114.81;;;15.60;64.53
63819;BME280;49970;54.976;73.248;2023-05-25T00:17:39;101120.16;;;15.60;64.90
63819;BME280;49970;54.976;73.248;2023-05-25T00:20:06;101119.03;;;15.63;64.24
63819;BME280;49970;54.976;73.248;2023-05-25T00:22:37;101117.75;;;15.68;64.07
63819;BME280;49970;54.976;73.248;2023-05-25T00:25:04;101115.31;;;15.77;63.91
63819;BME280;49970;54.976;73.248;2023-05-25T00:27:31;101112.03;;;15.84;62.26
63819;BME280;49970;54.976;73.248;2023-05-25T00:29:57;101102.81;;;15.88;63.10
63819;BME280;49970;54.976;73.248;2023-05-25T00:32:24;101097.94;;;15.93;62.10
63819;BME280;49970;54.976;73.248;2023-05-25T00:34:53;101096.97;;;15.94;62.08
63819;BME280;49970;54.976;73.248;2023-05-25T00:37:20;101090.53;;;15.97;61.62
63819;BME280;49970;54.976;73.248;2023-05-25T00:39:46;101095.34;;;16.03;60.98
63819;BME280;49970;54.976;73.248;2023-05-25T00:42:12;101092.56;;;16.05;60.70
63819;BME280;49970;54.976;73.248;2023-05-25T00:44:38;101089.88;;;16.05;60.54
63819;BME280;49970;54.976;73.248;2023-05-25T00:47:05;101084.28;;;16.08;60.04
63819;BME280;49970;54.976;73.248;2023-05-25T00:49:34;101083.19;;;16.10;59.49
63819;BME280;49970;54.976;73.248;2023-05-25T00:52:01;101077.72;;;16.12;59.65
63819;BME280;49970;54.976;73.248;2023-05-25T00:54:27;101079.03;;;16.17;59.67
63819;BME280;49970;54.976;73.248;2023-05-25T00:57:01;101083.28;;;16.20;59.58
63819;BME280;49970;54.976;73.248;2023-05-25T00:59:43;101078.53;;;16.24;58.48
63819;BME280;49970;54.976;73.248;2023-05-25T01:02:12;101074.41;;;16.19;58.22
63819;BME280;49970;54.976;73.248;2023-05-25T01:05:02;101080.38;;;16.23;58.08
63819;BME280;49970;54.976;73.248;2023-05-25T01:07:32;101083.75;;;16.25;58.33
63819;BME280;49970;54.976;73.248;2023-05-25T01:10:04;101080.97;;;16.27;57.80
63819;BME280;49970;54.976;73.248;2023-05-25T01:12:36;101081.81;;;16.27;57.79
63819;BME280;49970;54.976;73.248;2023-05-25T01:15:04;101065.03;;;16.25;57.89
63819;BME280;49970;54.976;73.248;2023-05-25T01:17:30;101052.31;;;16.17;57.85
63819;BME280;49970;54.976;73.248;2023-05-25T01:19:58;101041.88;;;16.14;57.96
63819;BME280;49970;54.976;73.248;2023-05-25T01:22:27;101027.94;;;16.11;58.05
63819;BME280;49970;54.976;73.248;2023-05-25T01:25:02;101042.50;;;16.07;58.38
63819;BME280;49970;54.976;73.248;2023-05-25T01:27:37;101035.69;;;16.14;58.47
63819;BME280;49970;54.976;73.248;2023-05-25T01:30:09;101024.72;;;16.17;57.88
63819;BME280;49970;54.976;73.248;2023-05-25T01:32:56;101025.72;;;16.16;57.86
63819;BME280;49970;54.976;73.248;2023-05-25T01:36:49;101025.31;;;16.21;56.91
63819;BME280;49970;54.976;73.248;2023-05-25T01:40:41;101036.81;;;16.32;56.91
63819;BME280;49970;54.976;73.248;2023-05-25T01:44:34;101019.75;;;16.44;57.22
63819;BME280;49970;54.976;73.248;2023-05-25T01:48:09;101008.28;;;16.54;57.36
63819;BME280;49970;54.976;73.248;2023-05-25T01:55:46;101009.59;;;16.80;57.52
63819;BME280;49970;54.976;73.248;2023-05-25T02:00:00;101007.97;;;16.89;57.53
63819;BME280;49970;54.976;73.248;2023-05-25T02:11:31;100996.66;;;17.16;57.96
63819;BME280;49970;54.976;73.248;2023-05-25T02:19:40;101004.38;;;18.19;56.25
63819;BME280;49970;54.976;73.248;2023-05-25T02:23:36;100998.16;;;18.38;55.78
63819;BME280;49970;54.976;73.248;2023-05-25T02:27:52;100997.00;;;18.50;55.95
63819;BME280;49970;54.976;73.248;2023-05-25T02:31:23;100985.97;;;18.63;55.46
63819;BME280;49970;54.976;73.248;2023-05-25T02:33:49;100973.94;;;18.86;54.54
63819;BME280;49970;54.976;73.248;2023-05-25T02:36:18;100968.19;;;19.09;54.46
63819;BME280;49970;54.976;73.248;2023-05-25T02:38:44;100966.44;;;19.17;53.68
63819;BME280;49970;54.976;73.248;2023-05-25T02:41:12;100978.75;;;19.20;52.94
63819;BME280;49970;54.976;73.248;2023-05-25T02:43:38;100973.75;;;19.25;52.55
63819;BME280;49970;54.976;73.248;2023-05-25T02:46:04;100974.88;;;19.32;51.69
63819;BME280;49970;54.976;73.248;2023-05-25T02:48:31;100982.63;;;19.35;51.85
63819;BME280;49970;54.976;73.248;2023-05-25T02:50:57;100979.94;;;19.35;51.61
63819;BME280;49970;54.976;73.248;2023-05-25T02:53:23;100985.16;;;19.37;51.22
63819;BME280;49970;54.976;73.248;2023-05-25T02:55:49;100975.09;;;19.39;50.38
63819;BME280;49970;54.976;73.248;2023-05-25T02:58:19;100970.56;;;19.39;49.86
63819;BME280;49970;54.976;73.248;2023-05-25T03:01:02;100974.13;;;19.40;50.64
63819;BME280;49970;54.976;73.248;2023-05-25T03:03:30;100979.50;;;19.40;50.86
63819;BME280;49970;54.976;73.248;2023-05-25T03:05:57;100983.59;;;19.34;51.15
63819;BME280;49970;54.976;73.248;2023-05-25T03:08:23;100991.44;;;19.28;50.88
63819;BME280;49970;54.976;73.248;2023-05-25T03:10:49;101000.63;;;19.25;51.17
63819;BME280;49970;54.976;73.248;2023-05-25T03:13:17;101021.09;;;19.26;51.02
63819;BME280;49970;54.976;73.248;2023-05-25T03:23:42;101026.81;;;19.13;49.90
63819;BME280;49970;54.976;73.248;2023-05-25T03:27:27;101029.06;;;19.18;49.81
63819;BME280;49970;54.976;73.248;2023-05-25T03:30:13;101042.66;;;19.16;50.01
63819;BME280;49970;54.976;73.248;2023-05-25T03:32:39;101042.38;;;19.10;50.16
63819;BME280;49970;54.976;73.248;2023-05-25T03:35:06;101027.69;;;19.04;50.31
63819;BME280;49970;54.976;73.248;2023-05-25T03:37:33;101038.88;;;19.00;50.66
63819;BME280;49970;54.976;73.248;2023-05-25T03:39:59;101023.91;;;18.97;51.34
63819;BME280;49970;54.976;73.248;2023-05-25T03:42:27;101022.63;;;19.01;51.81
63819;BME280;49970;54.976;73.248;2023-05-25T03:45:02;101015.28;;;19.03;51.73
63819;BME280;49970;54.976;73.248;2023-05-25T03:47:28;101016.69;;;19.07;52.30
63819;BME280;49970;54.976;73.248;2023-05-25T03:49:55;101007.88;;;19.15;52.53
63819;BME280;49970;54.976;73.248;2023-05-25T03:52:21;101001.47;;;19.26;53.18
63819;BME280;49970;54.976;73.248;2023-05-25T03:54:48;100995.91;;;19.37;53.63
63819;BME280;49970;54.976;73.248;2023-05-25T03:57:14;100985.81;;;19.49;53.92
63819;BME280;49970;54.976;73.248;2023-05-25T03:59:40;100980.38;;;19.58;54.11
63819;BME280;49970;54.976;73.248;2023-05-25T04:02:06;100975.41;;;19.63;54.26
63819;BME280;49970;54.976;73.248;2023-05-25T04:04:33;100967.72;;;19.69;54.74
63819;BME280;49970;54.976;73.248;2023-05-25T04:06:59;100965.44;;;19.74;54.84
63819;BME280;49970;54.976;73.248;2023-05-25T04:09:25;100967.34;;;19.81;55.34
63819;BME280;49970;54.976;73.248;2023-05-25T04:11:51;100963.34;;;19.85;55.02
63819;BME280;49970;54.976;73.248;2023-05-25T04:14:17;100972.72;;;19.81;55.08
63819;BME280;49970;54.976;73.248;2023-05-25T04:16:47;100970.66;;;19.75;55.48
63819;BME280;49970;54.976;73.248;2023-05-25T04:19:14;100982.03;;;19.69;55.59
63819;BME280;49970;54.976;73.248;2023-05-25T04:21:41;100974.44;;;19.55;56.20
63819;BME280;49970;54.976;73.248;2023-05-25T04:24:07;100987.22;;;19.43;56.69
63819;BME280;49970;54.976;73.248;2023-05-25T04:26:34;100985.91;;;19.29;56.98
63819;BME280;49970;54.976;73.248;2023-05-25T04:29:02;100985.13;;;19.19;57.83
63819;BME280;49970;54.976;73.248;2023-05-25T04:32:00;100985.00;;;19.11;60.23
63819;BME280;49970;54.976;73.248;2023-05-25T04:34:46;100975.44;;;18.99;62.79
63819;BME280;49970;54.976;73.248;2023-05-25T04:37:18;100942.84;;;18.84;65.30
63819;BME280;49970;54.976;73.248;2023-05-25T04:39:46;100927.50;;;18.66;66.15
63819;BME280;49970;54.976;73.248;2023-05-25T04:42:13;100928.38;;;18.57;65.74
63819;BME280;49970;54.976;73.248;2023-05-25T04:44:39;100921.31;;;18.47;65.66
63819;BME280;49970;54.976;73.248;2023-05-25T04:47:06;100896.22;;;18.48;67.22
63819;BME280;49970;54.976;73.248;2023-05-25T04:49:33;100890.53;;;18.51;69.32
63819;BME280;49970;54.976;73.248;2023-05-25T04:52:00;100878.81;;;18.52;69.79
63819;BME280;49970;54.976;73.248;2023-05-25T04:54:28;100876.13;;;18.52;71.77
63819;BME280;49970;54.976;73.248;2023-05-25T04:56:57;100887.13;;;18.58;71.71
63819;BME280;49970;54.976;73.248;2023-05-25T04:59:23;100888.38;;;18.64;70.46
63819;BME280;49970;54.976;73.248;2023-05-25T05:01:50;100884.00;;;18.63;71.03
63819;BME280;49970;54.976;73.248;2023-05-25T05:04:16;100876.50;;;18.66;71.62
63819;BME280;49970;54.976;73.248;2023-05-25T05:06:44;100873.41;;;18.71;70.49
63819;BME280;49970;54.976;73.248;2023-05-25T05:09:17;100866.75;;;18.75;70.35
63819;BME280;49970;54.976;73.248;2023-05-25T05:11:44;100869.81;;;18.80;71.89
63819;BME280;49970;54.976;73.248;2023-05-25T05:14:12;100860.19;;;18.87;71.31
63819;BME280;49970;54.976;73.248;2023-05-25T05:16:40;100856.38;;;18.90;71.64
63819;BME280;49970;54.976;73.248;2023-05-25T05:19:06;100857.31;;;18.99;71.29
63819;BME280;49970;54.976;73.248;2023-05-25T05:21:33;100855.88;;;19.04;71.52
63819;BME280;49970;54.976;73.248;2023-05-25T05:24:03;100867.53;;;19.13;71.85
63819;BME280;49970;54.976;73.248;2023-05-25T05:26:29;100878.53;;;19.20;70.58
63819;BME280;49970;54.976;73.248;2023-05-25T05:28:55;100878.22;;;19.23;69.59
63819;BME280;49970;54.976;73.248;2023-05-25T05:31:22;100883.44;;;19.24;68.96
63819;BME280;49970;54.976;73.248;2023-05-25T05:33:49;100878.63;;;19.28;68.50
63819;BME280;49970;54.976;73.248;2023-05-25T05:36:16;100878.28;;;19.31;67.96
63819;BME280;49970;54.976;73.248;2023-05-25T05:38:42;100871.63;;;19.35;68.20
63819;BME280;49970;54.976;73.248;2023-05-25T05:41:12;100875.41;;;19.42;68.54
63819;BME280;49970;54.976;73.248;2023-05-25T05:43:40;100873.94;;;19.48;68.22
63819;BME280;49970;54.976;73.248;2023-05-25T05:46:11;100872.59;;;19.61;67.53
63819;BME280;49970;54.976;73.248;2023-05-25T05:48:39;100873.06;;;19.75;67.38
63819;BME280;49970;54.976;73.248;2023-05-25T05:51:06;100867.94;;;19.89;67.11
63819;BME280;49970;54.976;73.248;2023-05-25T05:53:33;100877.16;;;20.05;67.32
63819;BME280;49970;54.976;73.248;2023-05-25T05:56:03;100864.31;;;20.17;66.08
63819;BME280;49970;54.976;73.248;2023-05-25T05:58:29;100866.88;;;20.26;64.99
63819;BME280;49970;54.976;73.248;2023-05-25T06:00:57;100872.31;;;20.34;66.17
63819;BME280;49970;54.976;73.248;2023-05-25T06:03:25;100867.94;;;20.33;65.80
63819;BME280;49970;54.976;73.248;2023-05-25T06:05:54;100866.84;;;20.44;64.78
63819;BME280;49970;54.976;73.248;2023-05-25T06:08:22;100863.34;;;20.52;63.89
63819;BME280;49970;54.976;73.248;2023-05-25T06:10:49;100858.38;;;20.57;64.00
63819;BME280;49970;54.976;73.248;2023-05-25T06:13:15;100857.72;;;20.63;63.11
63819;BME280;49970;54.976;73.248;2023-05-25T06:15:42;100847.44;;;20.58;62.06
63819;BME280;49970;54.976;73.248;2023-05-25T06:18:32;100842.56;;;20.62;62.20
63819;BME280;49970;54.976;73.248;2023-05-25T06:21:54;100846.94;;;20.63;62.07
63819;BME280;49970;54.976;73.248;2023-05-25T06:24:20;100855.16;;;20.53;61.33
63819;BME280;49970;54.976;73.248;2023-05-25T06:26:47;100850.06;;;20.50;62.95
63819;BME280;49970;54.976;73.248;2023-05-25T06:29:15;100847.22;;;20.52;62.17
63819;BME280;49970;54.976;73.248;2023-05-25T06:31:42;100850.91;;;20.51;61.96
63819;BME280;49970;54.976;73.248;2023-05-25T06:34:08;100848.06;;;20.52;62.32
63819;BME280;49970;54.976;73.248;2023-05-25T06:36:35;100850.63;;;20.62;62.80
63819;BME280;49970;54.976;73.248;2023-05-25T06:39:02;100844.47;;;20.70;62.09
63819;BME280;49970;54.976;73.248;2023-05-25T06:41:29;100851.34;;;20.72;61.91
63819;BME280;49970;54.976;73.248;2023-05-25T06:43:55;100852.03;;;20.74;62.55
63819;BME280;49970;54.976;73.248;2023-05-25T06:46:30;100847.84;;;20.80;61.74
63819;BME280;49970;54.976;73.248;2023-05-25T06:48:59;100838.63;;;20.82;61.96
63819;BME280;49970;54.976;73.248;2023-05-25T06:51:26;100827.31;;;20.79;62.72
63819;BME280;49970;54.976;73.248;2023-05-25T06:53:55;100846.19;;;20.87;62.18
63819;BME280;49970;54.976;73.248;2023-05-25T06:56:22;100851.69;;;20.77;61.27
63819;BME280;49970;54.976;73.248;2023-05-25T06:58:49;100844.25;;;20.63;61.83
63819;BME280;49970;54.976;73.248;2023-05-25T07:01:16;100831.94;;;20.60;62.47
63819;BME280;49970;54.976;73.248;2023-05-25T07:03:42;100842.03;;;20.58;62.27
63819;BME280;49970;54.976;73.248;2023-05-25T07:06:08;100840.16;;;20.51;62.67
63819;BME280;49970;54.976;73.248;2023-05-25T07:08:37;100849.22;;;20.50;63.80
63819;BME280;49970;54.976;73.248;2023-05-25T07:11:13;100857.59;;;20.47;63.73
63819;BME280;49970;54.976;73.248;2023-05-25T07:13:39;100845.88;;;20.30;63.68
63819;BME280;49970;54.976;73.248;2023-05-25T07:16:05;100847.22;;;20.26;64.65
63819;BME280;49970;54.976;73.248;2023-05-25T07:18:31;100848.69;;;20.20;64.27
63819;BME280;49970;54.976;73.248;2023-05-25T07:20:58;100855.22;;;20.18;64.39
63819;BME280;49970;54.976;73.248;2023-05-25T07:23:24;100851.53;;;20.19;64.30
63819;BME280;49970;54.976;73.248;2023-05-25T07:25:50;100857.91;;;20.18;63.95
63819;BME280;49970;54.976;73.248;2023-05-25T07:28:17;100860.47;;;20.19;63.51
63819;BME280;49970;54.976;73.248;2023-05-25T07:30:43;100858.38;;;20.13;62.67
63819;BME280;49970;54.976;73.248;2023-05-25T07:33:09;100847.56;;;20.05;62.56
63819;BME280;49970;54.976;73.248;2023-05-25T07:35:50;100849.97;;;20.08;63.37
63819;BME280;49970;54.976;73.248;2023-05-25T07:38:17;100857.50;;;20.04;63.81
63819;BME280;49970;54.976;73.248;2023-05-25T07:40:43;100850.44;;;20.03;64.24
63819;BME280;49970;54.976;73.248;2023-05-25T07:43:12;100847.75;;;20.03;64.63
63819;BME280;49970;54.976;73.248;2023-05-25T07:45:39;100842.03;;;20.06;64.02
63819;BME280;49970;54.976;73.248;2023-05-25T07:48:05;100846.09;;;20.10;63.63
63819;BME280;49970;54.976;73.248;2023-05-25T07:50:32;100848.34;;;20.15;62.56
63819;BME280;49970;54.976;73.248;2023-05-25T07:52:58;100840.94;;;20.17;62.44
63819;BME280;49970;54.976;73.248;2023-05-25T07:55:25;100836.72;;;20.14;62.63
63819;BME280;49970;54.976;73.248;2023-05-25T07:57:52;100840.94;;;20.17;62.55
63819;BME280;49970;54.976;73.248;2023-05-25T08:00:18;100832.34;;;20.13;62.40
63819;BME280;49970;54.976;73.248;2023-05-25T08:02:45;100835.88;;;20.14;62.24
63819;BME280;49970;54.976;73.248;2023-05-25T08:05:11;100829.88;;;20.20;62.43
63819;BME280;49970;54.976;73.248;2023-05-25T08:07:38;100820.63;;;20.23;62.08
63819;BME280;49970;54.976;73.248;2023-05-25T08:10:05;100826.53;;;20.26;61.99
63819;BME280;49970;54.976;73.248;2023-05-25T08:12:32;100830.06;;;20.27;62.32
63819;BME280;49970;54.976;73.248;2023-05-25T08:14:58;100821.97;;;20.27;62.95
63819;BME280;49970;54.976;73.248;2023-05-25T08:17:24;100822.81;;;20.27;62.74
63819;BME280;49970;54.976;73.248;2023-05-25T08:19:55;100818.63;;;20.25;62.64
63819;BME280;49970;54.976;73.248;2023-05-25T08:22:22;100809.84;;;20.23;62.85
63819;BME280;49970;54.976;73.248;2023-05-25T08:24:48;100814.41;;;20.22;63.81
63819;BME280;49970;54.976;73.248;2023-05-25T08:27:15;100823.84;;;20.26;64.05
63819;BME280;49970;54.976;73.248;2023-05-25T08:29:41;100824.84;;;20.25;65.04
63819;BME280;49970;54.976;73.248;2023-05-25T08:32:07;100823.16;;;20.24;65.61
63819;BME280;49970;54.976;73.248;2023-05-25T08:34:34;100820.13;;;20.19;66.29
63819;BME280;49970;54.976;73.248;2023-05-25T08:37:00;100816.06;;;20.15;66.83
63819;BME280;49970;54.976;73.248;2023-05-25T08:39:33;100810.69;;;20.15;67.04
63819;BME280;49970;54.976;73.248;2023-05-25T08:42:00;100809.50;;;20.18;66.96
63819;BME280;49970;54.976;73.248;2023-05-25T08:44:26;100816.72;;;20.17;67.26
63819;BME280;49970;54.976;73.248;2023-05-25T08:46:55;100813.88;;;20.19;67.02
63819;BME280;49970;54.976;73.248;2023-05-25T08:49:24;100801.97;;;20.21;66.81
63819;BME280;49970;54.976;73.248;2023-05-25T08:51:53;100810.03;;;20.21;66.47
63819;BME280;49970;54.976;73.248;2023-05-25T08:54:43;100804.28;;;20.16;66.59
63819;BME280;49970;54.976;73.248;2023-05-25T08:58:35;100800.91;;;20.14;66.94
63819;BME280;49970;54.976;73.248;2023-05-25T09:06:01;100791.91;;;20.23;66.70
63819;BME280;49970;54.976;73.248;2023-05-25T09:13:41;100778.03;;;20.44;65.63
63819;BME280;49970;54.976;73.248;2023-05-25T09:17:33;100786.31;;;20.51;65.37
63819;BME280;49970;54.976;73.248;2023-05-25T09:21:24;100785.69;;;20.57;65.15
63819;BME280;49970;54.976;73.248;2023-05-25T09:25:18;100773.09;;;20.66;65.28
63819;BME280;49970;54.976;73.248;2023-05-25T09:29:11;100772.97;;;20.75;64.84
63819;BME280;49970;54.976;73.248;2023-05-25T09:36:46;100775.34;;;20.86;64.43
63819;BME280;49970;54.976;73.248;2023-05-25T09:40:38;100774.50;;;20.94;64.87
63819;BME280;49970;54.976;73.248;2023-05-25T09:44:29;100775.19;;;20.96;65.53
63819;BME280;49970;54.976;73.248;2023-05-25T09:48:22;100765.28;;;21.05;64.31
63819;BME280;49970;54.976;73.248;2023-05-25T09:59:49;100752.69;;;21.30;63.90
63819;BME280;49970;54.976;73.248;2023-05-25T10:03:46;100745.78;;;21.35;62.70
63819;BME280;49970;54.976;73.248;2023-05-25T10:07:37;100747.84;;;21.33;61.95
63819;BME280;49970;54.976;73.248;2023-05-25T10:11:28;100751.84;;;21.29;62.11
63819;BME280;49970;54.976;73.248;2023-05-25T10:15:44;100742.06;;;21.28;62.07
63819;BME280;49970;54.976;73.248;2023-05-25T10:19:36;100735.50;;;21.23;62.18
63819;BME280;49970;54.976;73.248;2023-05-25T10:23:31;100734.31;;;21.17;61.75
63819;BME280;49970;54.976;73.248;2023-05-25T10:26:45;100731.28;;;21.12;61.87
63819;BME280;49970;54.976;73.248;2023-05-25T10:29:16;100729.75;;;21.09;60.57
63819;BME280;49970;54.976;73.248;2023-05-25T10:31:44;100715.63;;;21.07;60.87
63819;BME280;49970;54.976;73.248;2023-05-25T10:34:12;100728.25;;;21.07;59.42
63819;BME280;49970;54.976;73.248;2023-05-25T10:36:39;100736.66;;;21.04;57.28
63819;BME280;49970;54.976;73.248;2023-05-25T10:39:08;100750.13;;;20.96;59.48
63819;BME280;49970;54.976;73.248;2023-05-25T10:41:34;100746.00;;;20.67;58.66
63819;BME280;49970;54.976;73.248;2023-05-25T10:44:01;100765.78;;;20.15;60.26
63819;BME280;49970;54.976;73.248;2023-05-25T10:46:28;100766.84;;;19.71;60.37
63819;BME280;49970;54.976;73.248;2023-05-25T10:48:54;100754.13;;;19.37;61.36
63819;BME280;49970;54.976;73.248;2023-05-25T10:51:37;100775.84;;;19.08;61.16
63819;BME280;49970;54.976;73.248;2023-05-25T10:54:03;100773.72;;;18.94;63.13
63819;BME280;49970;54.976;73.248;2023-05-25T10:56:30;100788.47;;;18.80;63.67
63819;BME280;49970;54.976;73.248;2023-05-25T10:58:56;100757.41;;;18.50;65.98
63819;BME280;49970;54.976;73.248;2023-05-25T11:01:23;100799.78;;;18.46;68.70
63819;BME280;49970;54.976;73.248;2023-05-25T11:03:54;100788.16;;;18.28;69.22
63819;BME280;49970;54.976;73.248;2023-05-25T11:06:23;100764.53;;;18.04;70.56
63819;BME280;49970;54.976;73.248;2023-05-25T11:17:08;100765.03;;;17.51;70.74
63819;BME280;49970;54.976;73.248;2023-05-25T11:19:49;100771.66;;;17.47;71.06
63819;BME280;49970;54.976;73.248;2023-05-25T11:22:21;100772.81;;;17.44;71.93
63819;BME280;49970;54.976;73.248;2023-05-25T11:24:51;100779.28;;;17.41;72.18
63819;BME280;49970;54.976;73.248;2023-05-25T11:27:26;100760.69;;;17.40;71.90
63819;BME280;49970;54.976;73.248;2023-05-25T11:29:58;100747.28;;;17.40;71.19
63819;BME280;49970;54.976;73.248;2023-05-25T11:32:48;100743.75;;;17.49;70.24
63819;BME280;49970;54.976;73.248;2023-05-25T11:35:15;100743.31;;;17.54;70.54
63819;BME280;49970;54.976;73.248;2023-05-25T11:37:48;100747.69;;;17.55;70.47
63819;BME280;49970;54.976;73.248;2023-05-25T11:40:15;100759.38;;;17.54;71.37
63819;BME280;49970;54.976;73.248;2023-05-25T11:42:45;100754.47;;;17.49;71.57
63819;BME280;49970;54.976;73.248;2023-05-25T11:45:16;100752.63;;;17.50;71.11
63819;BME280;49970;54.976;73.248;2023-05-25T11:47:42;100747.44;;;17.48;69.56
63819;BME280;49970;54.976;73.248;2023-05-25T11:50:14;100750.22;;;17.56;68.91
63819;BME280;49970;54.976;73.248;2023-05-25T11:52:41;100758.69;;;17.61;69.14
63819;BME280;49970;54.976;73.248;2023-05-25T11:55:11;100763.19;;;17.61;69.31
63819;BME280;49970;54.976;73.248;2023-05-25T11:57:39;100771.63;;;17.66;69.65
63819;BME280;49970;54.976;73.248;2023-05-25T12:00:07;100776.72;;;17.69;69.29
63819;BME280;49970;54.976;73.248;2023-05-25T12:02:39;100784.91;;;17.77;68.87
63819;BME280;49970;54.976;73.248;2023-05-25T12:05:09;100783.63;;;17.81;67.89
63819;BME280;49970;54.976;73.248;2023-05-25T12:07:42;100789.97;;;17.90;68.37
63819;BME280;49970;54.976;73.248;2023-05-25T12:10:11;100800.81;;;17.98;67.63
63819;BME280;49970;54.976;73.248;2023-05-25T12:12:46;100815.16;;;18.07;68.38
63819;BME280;49970;54.976;73.248;2023-05-25T12:15:20;100813.16;;;18.19;68.84
63819;BME280;49970;54.976;73.248;2023-05-25T12:17:47;100802.13;;;18.22;68.38
63819;BME280;49970;54.976;73.248;2023-05-25T12:20:15;100817.44;;;18.39;67.92
63819;BME280;49970;54.976;73.248;2023-05-25T12:22:42;100830.28;;;18.45;66.95
63819;BME280;49970;54.976;73.248;2023-05-25T12:25:10;100836.22;;;18.49;67.97
63819;BME280;49970;54.976;73.248;2023-05-25T12:27:37;100843.84;;;18.44;67.40
63819;BME280;49970;54.976;73.248;2023-05-25T12:30:07;100849.22;;;18.44;67.68
63819;BME280;49970;54.976;73.248;2023-05-25T12:32:34;100836.78;;;18.42;67.06
63819;BME280;49970;54.976;73.248;2023-05-25T12:35:05;100840.00;;;18.46;66.98
63819;BME280;49970;54.976;73.248;2023-05-25T12:37:32;100829.44;;;18.45;65.25
63819;BME280;49970;54.976;73.248;2023-05-25T12:39:58;100838.56;;;18.52;64.42
63819;BME280;49970;54.976;73.248;2023-05-25T12:42:25;100853.66;;;18.62;65.38
63819;BME280;49970;54.976;73.248;2023-05-25T12:44:55;100861.13;;;18.69;64.96
63819;BME280;49970;54.976;73.248;2023-05-25T12:47:31;100854.88;;;18.68;64.39
63819;BME280;49970;54.976;73.248;2023-05-25T12:50:12;100851.50;;;18.66;64.30
63819;BME280;49970;54.976;73.248;2023-05-25T12:52:42;100862.25;;;18.66;63.05
63819;BME280;49970;54.976;73.248;2023-05-25T12:57:46;100866.34;;;18.70;62.22
63819;BME280;49970;54.976;73.248;2023-05-25T13:00:21;100863.50;;;18.72;60.15
63819;BME280;49970;54.976;73.248;2023-05-25T13:02:49;100853.50;;;18.74;60.75
63819;BME280;49970;54.976;73.248;2023-05-25T13:05:20;100856.31;;;18.72;60.11
63819;BME280;49970;54.976;73.248;2023-05-25T13:07:47;100859.00;;;18.72;60.00
63819;BME280;49970;54.976;73.248;2023-05-25T13:10:14;100859.16;;;18.71;56.94
63819;BME280;49970;54.976;73.248;2023-05-25T13:12:43;100863.69;;;18.70;56.54
63819;BME280;49970;54.976;73.248;2023-05-25T13:15:10;100867.78;;;18.64;56.46
63819;BME280;49970;54.976;73.248;2023-05-25T13:17:37;100867.50;;;18.58;56.31
63819;BME280;49970;54.976;73.248;2023-05-25T13:20:04;100877.25;;;18.59;55.97
63819;BME280;49970;54.976;73.248;2023-05-25T13:22:31;100872.59;;;18.51;55.54
63819;BME280;49970;54.976;73.248;2023-05-25T13:24:57;100875.59;;;18.48;55.64
63819;BME280;49970;54.976;73.248;2023-05-25T13:27:24;100870.81;;;18.42;54.70
63819;BME280;49970;54.976;73.248;2023-05-25T13:30:10;100879.13;;;18.39;55.01
63819;BME280;49970;54.976;73.248;2023-05-25T13:33:41;100889.22;;;18.27;55.04
63819;BME280;49970;54.976;73.248;2023-05-25T13:36:27;100882.44;;;18.23;54.93
63819;BME280;49970;54.976;73.248;2023-05-25T13:39:59;100868.19;;;18.13;54.80
63819;BME280;49970;54.976;73.248;2023-05-25T13:42:25;100881.16;;;18.17;54.86
63819;BME280;49970;54.976;73.248;2023-05-25T13:44:51;100886.13;;;18.12;54.10
63819;BME280;49970;54.976;73.248;2023-05-25T13:47:17;100887.84;;;18.04;54.19
63819;BME280;49970;54.976;73.248;2023-05-25T13:49:44;100886.16;;;18.03;54.31
63819;BME280;49970;54.976;73.248;2023-05-25T13:52:10;100891.34;;;18.04;54.55
63819;BME280;49970;54.976;73.248;2023-05-25T13:54:36;100892.91;;;18.07;55.03
63819;BME280;49970;54.976;73.248;2023-05-25T13:57:03;100885.00;;;18.05;54.25
63819;BME280;49970;54.976;73.248;2023-05-25T13:59:29;100896.88;;;18.03;53.57
63819;BME280;49970;54.976;73.248;2023-05-25T14:01:55;100903.50;;;17.99;53.32
63819;BME280;49970;54.976;73.248;2023-05-25T14:04:21;100903.94;;;17.94;53.16
63819;BME280;49970;54.976;73.248;2023-05-25T14:06:47;100910.13;;;17.95;53.13
63819;BME280;49970;54.976;73.248;2023-05-25T14:09:14;100917.19;;;17.96;53.24
63819;BME280;49970;54.976;73.248;2023-05-25T14:11:40;100916.75;;;17.90;52.45
63819;BME280;49970;54.976;73.248;2023-05-25T14:14:07;100923.97;;;17.90;52.74
63819;BME280;49970;54.976;73.248;2023-05-25T14:16:34;100922.25;;;17.89;51.82
63819;BME280;49970;54.976;73.248;2023-05-25T14:19:01;100927.75;;;17.87;52.41
63819;BME280;49970;54.976;73.248;2023-05-25T14:21:28;100924.66;;;17.82;52.31
63819;BME280;49970;54.976;73.248;2023-05-25T14:23:56;100913.81;;;17.74;52.71
63819;BME280;49970;54.976;73.248;2023-05-25T14:26:24;100931.44;;;17.77;52.58